Time;durP1;ratioP1;P1;durP2;ratioP2;P2;SDS_P1;SDS_P2;PMS_P1;PMS_P2;Temp;Humidity;BMP_temperature;BMP_pressure;BME280_temperature;BME280_humidity;BME280_pressure;Samples;Min_cycle;Max_cycle;Signal;HPM_P1;HPM_P2
2023/11/12 00:01:35;;;;;;;11.23;7.82;;;;;;;4.18;78.27;92077.53;2067634;69;20659;-78
2023/11/12 00:04:07;;;;;;;11.63;8.00;;;;;;;4.19;77.87;92074.16;2067669;69;20980;-79
2023/11/12 00:06:45;;;;;;;11.55;7.63;;;;;;;4.34;77.54;92082.22;2068037;69;20156;-79
2023/11/12 00:09:17;;;;;;;8.38;6.45;;;;;;;4.39;77.19;92083.25;2064641;69;20239;-79
2023/11/12 00:11:43;;;;;;;10.90;7.70;;;;;;;4.13;77.92;92079.28;2067728;69;20135;-79
2023/11/12 00:14:15;;;;;;;9.35;6.65;;;;;;;4.15;77.67;92078.69;2067470;69;20236;-80
2023/11/12 00:16:43;;;;;;;9.18;7.10;;;;;;;3.98;78.45;92087.88;2065075;69;20143;-80
2023/11/12 00:19:13;;;;;;;11.10;7.82;;;;;;;3.95;78.12;92059.16;2068235;69;20148;-79
2023/11/12 00:21:41;;;;;;;9.73;7.63;;;;;;;4.27;77.85;92074.03;2062042;69;20161;-79
2023/11/12 00:24:11;;;;;;;10.88;7.57;;;;;;;4.18;78.24;92064.34;2068129;69;20509;-79
2023/11/12 00:26:42;;;;;;;13.30;7.80;;;;;;;4.11;78.74;92062.41;2068407;69;20143;-80
2023/11/12 00:29:16;;;;;;;11.25;7.93;;;;;;;3.90;79.33;92048.31;2068353;69;20235;-79
2023/11/12 00:31:52;;;;;;;11.38;8.20;;;;;;;3.90;79.44;92054.63;2064970;69;20192;-80
2023/11/12 00:34:23;;;;;;;13.85;8.20;;;;;;;4.18;78.21;92050.41;2064964;69;20140;-79
2023/11/12 00:36:54;;;;;;;11.77;8.15;;;;;;;4.29;77.69;92049.81;2064887;69;20156;-80
2023/11/12 00:39:21;;;;;;;10.35;7.45;;;;;;;4.37;77.35;92046.16;2068385;69;20141;-80
2023/11/12 00:41:54;;;;;;;11.40;8.07;;;;;;;4.36;77.66;92048.22;2068187;69;20207;-79
2023/11/12 00:44:24;;;;;;;10.63;7.80;;;;;;;4.35;77.39;92038.38;2065100;69;20213;-79
2023/11/12 00:46:52;;;;;;;12.43;7.68;;;;;;;4.43;76.65;92041.75;2064789;69;20141;-79
2023/11/12 00:49:18;;;;;;;11.60;8.45;;;;;;;4.30;76.92;92042.19;2064776;69;20616;-80
2023/11/12 00:51:44;;;;;;;13.15;8.05;;;;;;;4.39;76.95;92037.94;2068156;69;20156;-80
2023/11/12 00:54:16;;;;;;;10.07;7.15;;;;;;;4.45;76.80;92041.19;2068144;69;20164;-79
2023/11/12 00:56:46;;;;;;;10.18;7.47;;;;;;;4.32;77.10;92043.06;2068043;69;20196;-79
2023/11/12 00:59:18;;;;;;;11.60;7.90;;;;;;;4.47;77.07;92030.91;2068221;69;20501;-80
2023/11/12 01:01:48;;;;;;;10.93;7.63;;;;;;;4.27;76.75;92010.66;2065454;69;20133;-79
2023/11/12 01:04:15;;;;;;;12.38;7.78;;;;;;;4.21;77.48;92035.28;2065327;69;20157;-79
2023/11/12 01:06:43;;;;;;;12.00;8.02;;;;;;;4.17;77.41;92006.41;2065372;69;20182;-80
2023/11/12 01:09:15;;;;;;;9.57;7.10;;;;;;;4.48;76.75;92024.00;2068755;69;20613;-79
2023/11/12 01:11:53;;;;;;;9.80;7.47;;;;;;;4.40;77.08;92019.88;2062436;69;20179;-78
2023/11/12 01:14:19;;;;;;;13.50;8.98;;;;;;;3.88;79.56;92020.31;2068439;69;20227;-79
2023/11/12 01:16:45;;;;;;;12.43;8.60;;;;;;;3.95;79.82;92009.03;2065467;69;20156;-79
2023/11/12 01:19:13;;;;;;;10.95;8.05;;;;;;;4.31;78.36;92024.16;2065259;69;20148;-79
2023/11/12 01:21:40;;;;;;;11.68;8.13;;;;;;;4.38;77.41;92014.91;2068645;69;20149;-79
2023/11/12 01:24:07;;;;;;;11.68;8.23;;;;;;;4.44;77.48;92017.41;2068631;69;20143;-79
2023/11/12 01:26:34;;;;;;;12.10;8.13;;;;;;;4.47;77.12;92025.31;2065065;69;20239;-79
2023/11/12 01:29:06;;;;;;;11.15;8.32;;;;;;;4.46;77.38;92023.84;2068512;69;20156;-79
2023/11/12 01:31:38;;;;;;;11.98;8.48;;;;;;;4.53;77.22;92025.00;2068722;69;20171;-80
2023/11/12 01:34:08;;;;;;;;;;;;;;;4.54;76.84;92026.50;2068530;69;20136;-80
2023/11/12 01:36:35;;;;;;;10.90;7.82;;;;;;;4.40;76.39;92025.47;2068782;69;20041;-80
2023/11/12 01:39:02;;;;;;;10.50;7.97;;;;;;;4.37;76.87;92030.16;2067865;69;20225;-79
2023/11/12 01:41:33;;;;;;;10.90;7.95;;;;;;;4.30;76.78;92012.25;2068577;69;20622;-78
2023/11/12 01:44:00;;;;;;;9.88;7.18;;;;;;;4.24;76.64;92008.31;2068507;69;20559;-79
2023/11/12 01:46:28;;;;;;;7.75;5.90;;;;;;;4.15;76.68;91998.63;2064794;69;20548;-80
2023/11/12 01:48:57;;;;;;;7.30;5.68;;;;;;;4.06;76.14;92004.94;2068036;69;20140;-79
2023/11/12 01:51:37;;;;;;;6.20;4.85;;;;;;;4.01;76.23;91998.34;2062147;69;20599;-79
2023/11/12 01:54:04;;;;;;;5.35;3.72;;;;;;;3.65;76.10;91968.56;2068452;69;20540;-78
2023/11/12 01:56:33;;;;;;;5.32;3.53;;;;;;;3.94;76.08;91990.88;2068274;69;20203;-78
2023/11/12 01:59:07;;;;;;;4.90;3.10;;;;;;;3.86;75.98;91983.97;2065113;69;20604;-78
2023/11/12 02:01:35;;;;;;;6.53;4.70;;;;;;;3.95;76.56;91992.34;2064996;69;20148;-79
2023/11/12 02:04:07;;;;;;;6.90;4.97;;;;;;;4.05;76.05;91995.84;2064723;69;20218;-80
2023/11/12 02:06:33;;;;;;;7.28;5.28;;;;;;;4.19;75.15;91998.19;2064874;69;20909;-80
2023/11/12 02:08:58;;;;;;;7.32;4.63;;;;;;;4.15;76.28;91990.28;2067226;69;20194;-80
2023/11/12 02:11:26;;;;;;;6.05;3.97;;;;;;;4.11;75.93;91997.63;2067801;69;20177;-80
2023/11/12 02:13:56;;;;;;;7.32;4.20;;;;;;;4.10;76.41;91998.94;2065036;69;20176;-80
2023/11/12 02:16:21;;;;;;;6.15;4.25;;;;;;;4.16;75.93;91991.75;2064624;69;20263;-80
2023/11/12 02:18:47;;;;;;;4.90;3.88;;;;;;;4.18;76.47;91994.69;2067852;69;20247;-80
2023/11/12 02:21:13;;;;;;;9.43;6.28;;;;;;;4.17;76.27;91996.00;2064340;69;20141;-80
2023/11/12 02:23:38;;;;;;;9.73;6.68;;;;;;;4.25;76.37;91979.13;2067614;69;20176;-80
2023/11/12 02:26:04;;;;;;;8.48;5.60;;;;;;;4.26;76.19;91984.13;2067694;69;20792;-80
2023/11/12 02:28:30;;;;;;;8.23;5.07;;;;;;;4.26;75.90;91973.00;2067468;69;20231;-80
2023/11/12 02:30:57;;;;;;;7.47;5.13;;;;;;;4.32;75.80;91973.41;2064051;69;20160;-80
2023/11/12 02:33:27;;;;;;;6.53;4.55;;;;;;;4.18;75.79;91958.47;2066391;69;20250;-79
2023/11/12 02:35:55;;;;;;;6.75;4.55;;;;;;;4.17;75.86;91959.03;2068189;69;20151;-79
2023/11/12 02:38:23;;;;;;;7.25;5.00;;;;;;;4.28;75.99;91961.25;2067858;69;20167;-80
2023/11/12 02:40:50;;;;;;;7.15;4.55;;;;;;;4.20;75.91;91961.38;2071382;69;20595;-80
2023/11/12 02:43:18;;;;;;;6.20;4.40;;;;;;;4.20;75.86;91966.97;2065465;69;20152;-80
2023/11/12 02:45:44;;;;;;;5.13;3.70;;;;;;;4.27;76.07;91962.56;2071310;69;20622;-80
2023/11/12 02:48:35;;;;;;;5.35;3.50;;;;;;;4.29;75.79;91969.00;2067708;69;20144;-80
2023/11/12 02:51:01;;;;;;;6.10;3.97;;;;;;;4.22;75.70;91960.81;2067804;69;20148;-80
2023/11/12 02:53:27;;;;;;;5.20;3.55;;;;;;;4.24;75.09;91947.03;2067761;69;20591;-80
2023/11/12 02:55:52;;;;;;;5.20;3.40;;;;;;;4.34;74.98;91958.88;2068119;69;20136;-80
2023/11/12 02:58:19;;;;;;;7.00;3.83;;;;;;;4.32;75.16;91950.38;2067796;69;20223;-79
2023/11/12 03:00:45;;;;;;;5.82;3.92;;;;;;;4.32;74.78;91951.13;2071470;69;20141;-80
2023/11/12 03:03:14;;;;;;;5.97;3.60;;;;;;;4.29;74.90;91940.41;2068145;69;20143;-79
2023/11/12 03:05:40;;;;;;;5.43;3.42;;;;;;;4.31;74.98;91937.78;2071632;69;20147;-80
2023/11/12 03:08:06;;;;;;;4.75;3.50;;;;;;;4.29;75.08;91946.72;2068189;69;20160;-79
2023/11/12 03:10:33;;;;;;;4.50;3.10;;;;;;;4.28;74.56;91925.03;2071280;69;20167;-80
2023/11/12 03:12:59;;;;;;;5.57;3.55;;;;;;;4.38;74.75;91934.09;2067920;69;20137;-79
2023/11/12 03:15:32;;;;;;;5.57;3.90;;;;;;;4.37;74.90;91929.13;2067576;69;20157;-80
2023/11/12 03:18:00;;;;;;;6.00;4.03;;;;;;;4.29;75.65;91934.84;2068109;69;20148;-80
2023/11/12 03:20:30;;;;;;;5.13;3.80;;;;;;;4.34;75.11;91936.59;2067720;69;20240;-80
2023/11/12 03:22:57;;;;;;;6.40;3.90;;;;;;;4.28;75.41;91938.97;2067229;69;20614;-79
2023/11/12 03:25:22;;;;;;;5.45;3.55;;;;;;;4.29;75.15;91948.78;2067149;69;20169;-80
2023/11/12 03:27:52;;;;;;;5.07;3.55;;;;;;;4.32;75.41;91945.56;2066882;69;20172;-80
2023/11/12 03:30:17;;;;;;;6.15;4.18;;;;;;;4.34;75.23;91951.25;2067801;69;20132;-80
2023/11/12 03:32:44;;;;;;;5.68;4.10;;;;;;;4.34;75.33;91945.69;2068198;69;20183;-80
2023/11/12 03:35:11;;;;;;;6.70;3.75;;;;;;;4.32;75.00;91953.91;2067588;69;20151;-80
2023/11/12 03:37:37;;;;;;;7.90;4.07;;;;;;;4.30;74.58;91953.75;2068190;69;20202;-80
2023/11/12 03:40:05;;;;;;;5.20;3.90;;;;;;;4.38;74.34;91947.31;2066996;69;20180;-80
2023/11/12 03:42:31;;;;;;;6.55;4.07;;;;;;;4.31;74.46;91935.72;2067074;69;20144;-80
2023/11/12 03:44:57;;;;;;;5.43;3.53;;;;;;;4.33;74.78;91935.88;2064100;69;20141;-80
2023/11/12 03:47:24;;;;;;;6.22;3.40;;;;;;;4.38;74.88;91933.38;2067064;69;20152;-80
2023/11/12 03:49:50;;;;;;;5.70;3.42;;;;;;;4.37;74.52;91929.84;2064174;69;20179;-79
2023/11/12 03:52:19;;;;;;;4.47;3.25;;;;;;;4.36;74.35;91925.59;2067072;69;20186;-80
2023/11/12 03:54:45;;;;;;;5.82;3.40;;;;;;;4.34;74.25;91931.75;2066932;69;20141;-80
2023/11/12 03:57:16;;;;;;;4.57;3.28;;;;;;;4.32;74.35;91928.84;2067726;69;20149;-81
2023/11/12 03:59:55;;;;;;;;;;;;;;;;;;;;;
2023/11/12 04:02:22;;;;;;;5.93;3.30;;;;;;;4.33;74.55;91919.16;2067958;69;20188;-80
2023/11/12 04:04:48;;;;;;;6.43;3.40;;;;;;;4.29;74.63;91924.44;2067314;69;20205;-79
2023/11/12 04:07:18;;;;;;;5.53;3.15;;;;;;;4.27;74.14;91912.41;2067997;69;20576;-79
2023/11/12 04:09:45;;;;;;;4.53;3.08;;;;;;;4.21;74.39;91903.63;2068035;69;20235;-80
2023/11/12 04:12:14;;;;;;;4.95;2.88;;;;;;;4.19;74.34;91906.28;2068276;69;20282;-79
2023/11/12 04:14:40;;;;;;;6.30;3.08;;;;;;;4.04;74.40;91888.56;2068946;69;20255;-79
2023/11/12 04:17:07;;;;;;;3.58;2.80;;;;;;;4.11;73.99;91883.41;2071839;69;20185;-79
2023/11/12 04:19:33;;;;;;;4.25;2.78;;;;;;;4.12;74.12;91880.03;2071983;69;20247;-80
2023/11/12 04:22:01;;;;;;;3.38;2.70;;;;;;;4.11;74.02;91875.78;2071623;69;20321;-80
2023/11/12 04:24:27;;;;;;;4.43;3.15;;;;;;;4.13;73.96;91870.38;2071554;69;20182;-80
2023/11/12 04:26:53;;;;;;;4.13;2.90;;;;;;;4.02;74.25;91873.75;2071505;69;20152;-80
2023/11/12 04:29:19;;;;;;;4.38;3.17;;;;;;;4.03;73.77;91872.41;2068210;69;20153;-81
2023/11/12 04:31:44;;;;;;;4.20;3.30;;;;;;;3.90;73.58;91861.75;2071650;69;20148;-80
2023/11/12 04:34:10;;;;;;;4.82;3.40;;;;;;;3.75;73.65;91849.59;2071317;69;20198;-80
2023/11/12 04:36:37;;;;;;;5.97;3.50;;;;;;;3.95;73.27;91867.03;2071485;69;20195;-81
2023/11/12 04:39:04;;;;;;;5.32;3.58;;;;;;;3.82;73.52;91857.06;2071374;69;20157;-81
2023/11/12 04:41:29;;;;;;;5.50;3.00;;;;;;;3.78;73.60;91865.13;2071256;69;20565;-81
2023/11/12 04:43:56;;;;;;;5.55;3.40;;;;;;;3.82;73.70;91867.47;2071338;69;20537;-80
2023/11/12 04:46:22;;;;;;;5.28;3.20;;;;;;;3.82;73.60;91859.13;2071371;69;20160;-80
2023/11/12 04:48:48;;;;;;;4.50;3.15;;;;;;;3.75;73.79;91855.16;2071292;69;20144;-81
2023/11/12 04:51:19;;;;;;;5.00;3.28;;;;;;;3.80;73.34;91856.94;2071502;69;20239;-80
2023/11/12 04:53:45;;;;;;;6.47;3.65;;;;;;;3.71;73.09;91832.63;2071385;69;20156;-80
2023/11/12 04:56:11;;;;;;;5.05;3.40;;;;;;;3.72;73.33;91850.06;2067877;69;20176;-80
2023/11/12 04:58:38;;;;;;;4.03;2.95;;;;;;;3.66;73.45;91857.94;2071383;69;20144;-80
2023/11/12 05:01:04;;;;;;;5.10;3.00;;;;;;;3.45;73.94;91847.41;2071835;69;20525;-80
2023/11/12 05:03:31;;;;;;;4.65;2.70;;;;;;;3.48;73.47;91849.75;2072062;69;20144;-80
2023/11/12 05:06:01;;;;;;;6.18;2.50;;;;;;;3.61;73.43;91862.50;2071930;69;20185;-80
2023/11/12 05:08:27;;;;;;;4.38;2.50;;;;;;;3.46;73.71;91849.59;2072061;69;20245;-80
2023/11/12 05:10:53;;;;;;;3.08;2.50;;;;;;;3.47;73.82;91864.25;2071730;69;20137;-80
2023/11/12 05:13:19;;;;;;;4.03;2.83;;;;;;;3.42;73.93;91863.22;2068514;69;20152;-80
2023/11/12 05:15:45;;;;;;;4.70;3.10;;;;;;;3.45;73.85;91867.63;2071881;69;20152;-80
2023/11/12 05:18:11;;;;;;;5.75;3.33;;;;;;;2.97;74.84;91845.31;2071836;69;20133;-80
2023/11/12 05:20:36;;;;;;;4.82;3.33;;;;;;;3.00;75.51;91858.78;2071873;69;20148;-80
2023/11/12 05:23:02;;;;;;;6.90;3.45;;;;;;;3.12;74.81;91852.66;2071959;69;20164;-80
2023/11/12 05:25:28;;;;;;;5.63;3.50;;;;;;;3.19;74.58;91851.78;2071798;69;20190;-80
2023/11/12 05:27:54;;;;;;;5.85;3.65;;;;;;;3.10;75.01;91847.66;2072006;69;20144;-80
2023/11/12 05:30:23;;;;;;;5.85;3.60;;;;;;;3.21;74.54;91854.72;2071767;69;20223;-80
2023/11/12 05:32:49;;;;;;;5.60;3.63;;;;;;;3.24;74.28;91847.97;2068491;69;20227;-80
2023/11/12 05:35:19;;;;;;;6.30;3.78;;;;;;;3.22;74.53;91848.56;2068483;69;20183;-80
2023/11/12 05:37:45;;;;;;;4.80;3.10;;;;;;;3.17;74.93;91857.22;2071772;69;20590;-80
2023/11/12 05:40:12;;;;;;;5.85;3.42;;;;;;;3.19;74.89;91857.34;2071773;69;20129;-80
2023/11/12 05:42:37;;;;;;;6.85;3.20;;;;;;;3.19;74.95;91852.50;2071901;69;20555;-80
2023/11/12 05:45:05;;;;;;;3.88;3.00;;;;;;;3.15;74.75;91851.47;2071854;69;20175;-80
2023/11/12 05:47:31;;;;;;;6.57;3.47;;;;;;;3.21;75.20;91849.16;2071815;69;20144;-81
2023/11/12 05:49:57;;;;;;;5.50;3.40;;;;;;;3.23;74.37;91850.03;2071949;69;20214;-81
2023/11/12 05:52:23;;;;;;;4.55;3.10;;;;;;;3.24;74.13;91853.53;2071709;69;20152;-80
2023/11/12 05:54:48;;;;;;;4.90;3.28;;;;;;;3.14;75.03;91847.97;2071741;69;20597;-80
2023/11/12 05:57:15;;;;;;;3.70;2.80;;;;;;;3.20;75.05;91847.69;2071828;69;20152;-80
2023/11/12 05:59:40;;;;;;;3.80;2.42;;;;;;;3.19;75.01;91846.22;2071941;69;20174;-81
2023/11/12 06:02:06;;;;;;;6.50;2.72;;;;;;;3.22;74.45;91851.34;2071712;69;20202;-81
2023/11/12 06:04:32;;;;;;;4.55;2.92;;;;;;;3.18;74.44;91842.72;2071739;69;20721;-81
2023/11/12 06:06:58;;;;;;;5.40;3.40;;;;;;;3.16;75.24;91853.69;2071752;69;20141;-81
2023/11/12 06:09:24;;;;;;;4.75;3.15;;;;;;;2.97;75.43;91842.53;2068338;69;20132;-81
2023/11/12 06:11:51;;;;;;;5.97;3.50;;;;;;;2.85;75.88;91841.63;2071381;69;20180;-81
2023/11/12 06:14:17;;;;;;;5.50;3.50;;;;;;;2.84;76.05;91848.47;2071699;69;20172;-81
2023/11/12 06:16:42;;;;;;;5.13;3.40;;;;;;;2.99;75.69;91846.19;2071628;69;20243;-81
2023/11/12 06:19:08;;;;;;;4.75;3.20;;;;;;;3.08;74.83;91839.19;2065598;69;20507;-81
2023/11/12 06:21:34;;;;;;;4.97;2.95;;;;;;;3.14;74.89;91847.97;2071883;69;20144;-81
2023/11/12 06:24:01;;;;;;;4.97;3.33;;;;;;;3.11;74.95;91854.69;2068312;69;20236;-80
2023/11/12 06:26:27;;;;;;;4.68;3.50;;;;;;;2.95;75.06;91861.84;2071612;69;20206;-79
2023/11/12 06:28:52;;;;;;;5.60;3.60;;;;;;;3.13;74.76;91854.84;2071704;69;20176;-80
2023/11/12 06:31:18;;;;;;;6.70;3.92;;;;;;;3.12;74.33;91858.22;2071597;69;20575;-79
2023/11/12 06:33:44;;;;;;;7.28;3.58;;;;;;;3.02;74.75;91852.63;2071718;69;20144;-80
2023/11/12 06:36:13;;;;;;;4.55;3.25;;;;;;;3.17;74.39;91852.38;2068331;69;20148;-80
2023/11/12 06:38:41;;;;;;;5.00;3.35;;;;;;;3.24;74.36;91862.63;2071679;69;20208;-80
2023/11/12 06:41:10;;;;;;;6.30;3.10;;;;;;;3.30;74.60;91873.47;2071604;69;20232;-80
2023/11/12 06:43:38;;;;;;;4.93;2.97;;;;;;;3.25;74.87;91869.66;2071726;69;20205;-80
2023/11/12 06:46:05;;;;;;;5.20;3.20;;;;;;;3.36;74.26;91859.28;2071898;69;20148;-80
2023/11/12 06:48:30;;;;;;;5.82;3.20;;;;;;;3.25;74.24;91864.09;2071747;69;20660;-80
2023/11/12 06:50:56;;;;;;;4.03;3.10;;;;;;;3.41;73.59;91877.72;2071584;69;20164;-80
2023/11/12 06:53:22;;;;;;;4.05;2.80;;;;;;;3.48;73.25;91871.28;2071626;69;20164;-79
2023/11/12 06:55:47;;;;;;;4.78;3.28;;;;;;;3.46;73.58;91871.88;2068180;69;20136;-80
2023/11/12 06:58:13;;;;;;;4.93;3.30;;;;;;;3.46;73.72;91866.28;2071696;69;20141;-80
2023/11/12 07:00:39;;;;;;;5.60;2.80;;;;;;;3.52;73.98;91883.44;2071637;69;20238;-80
2023/11/12 07:03:05;;;;;;;7.45;3.30;;;;;;;3.52;74.17;91882.69;2071684;69;20182;-80
2023/11/12 07:05:32;;;;;;;7.80;3.72;;;;;;;3.56;74.04;91885.78;2068358;69;20140;-80
2023/11/12 07:07:58;;;;;;;6.97;3.55;;;;;;;3.66;73.94;91897.63;2071674;69;20144;-80
2023/11/12 07:10:24;;;;;;;16.35;11.10;;;;;;;3.73;73.76;91879.34;2071505;69;20154;-80
2023/11/12 07:12:50;;;;;;;91.15;46.25;;;;;;;3.62;73.60;91883.47;2071615;69;20521;-80
2023/11/12 07:15:15;;;;;;;26.23;12.13;;;;;;;3.42;73.69;91891.03;2071239;69;20159;-80
2023/11/12 07:17:41;;;;;;;7.55;4.68;;;;;;;3.66;72.99;91894.84;2071550;69;20140;-80
2023/11/12 07:20:09;;;;;;;8.00;4.75;;;;;;;3.51;73.15;91901.44;2071735;69;20136;-80
2023/11/12 07:22:36;;;;;;;6.93;4.50;;;;;;;3.59;72.71;91895.75;2071614;69;20235;-80
2023/11/12 07:25:03;;;;;;;5.50;3.67;;;;;;;3.67;72.51;91896.34;2071599;69;20484;-80
2023/11/12 07:27:29;;;;;;;6.07;3.85;;;;;;;3.64;72.89;91900.28;2071657;69;20152;-80
2023/11/12 07:29:54;;;;;;;31.73;16.58;;;;;;;3.81;72.52;91902.19;2071668;69;20198;-80
2023/11/12 07:32:20;;;;;;;44.33;27.52;;;;;;;3.40;73.16;91904.09;2071692;69;20171;-80
2023/11/12 07:34:47;;;;;;;15.43;9.98;;;;;;;3.38;74.24;91890.00;2068403;69;20145;-80
2023/11/12 07:37:13;;;;;;;12.77;9.18;;;;;;;3.30;74.11;91887.38;2071634;69;20152;-80
2023/11/12 07:39:40;;;;;;;8.43;5.13;;;;;;;3.71;73.65;91891.06;2068180;69;20156;-80
2023/11/12 07:42:07;;;;;;;8.25;5.47;;;;;;;3.90;72.68;91881.25;2071729;69;20151;-80
2023/11/12 07:44:34;;;;;;;8.20;5.28;;;;;;;3.91;72.14;91883.44;2071628;69;20609;-80
2023/11/12 07:47:00;;;;;;;8.43;5.22;;;;;;;4.13;71.06;91884.28;2071841;69;20164;-80
2023/11/12 07:49:25;;;;;;;7.35;5.22;;;;;;;4.20;71.01;91882.66;2071679;69;20206;-80
2023/11/12 07:51:51;;;;;;;9.93;6.38;;;;;;;4.16;71.44;91883.09;2071610;69;20148;-80
2023/11/12 07:54:17;;;;;;;13.27;8.82;;;;;;;4.02;71.74;91884.88;2071580;69;20244;-80
2023/11/12 07:56:44;;;;;;;7.90;4.60;;;;;;;4.21;71.38;91896.00;2071466;69;20259;-80
2023/11/12 07:59:10;;;;;;;5.65;3.83;;;;;;;4.13;71.59;91897.50;2068222;69;20216;-80
2023/11/12 08:01:36;;;;;;;11.45;6.10;;;;;;;3.79;72.40;91890.91;2068241;69;20201;-80
2023/11/12 08:04:02;;;;;;;33.78;19.08;;;;;;;3.90;71.31;91897.94;2065338;69;20156;-80
2023/11/12 08:06:28;;;;;;;13.85;7.60;;;;;;;4.07;70.85;91895.72;2071523;69;20148;-81
2023/11/12 08:08:54;;;;;;;12.00;6.38;;;;;;;4.15;70.79;91900.41;2071507;69;20147;-80
2023/11/12 08:11:21;;;;;;;9.30;5.10;;;;;;;4.00;71.00;91912.59;2071392;69;20213;-80
2023/11/12 08:13:47;;;;;;;6.95;4.18;;;;;;;3.87;71.08;91910.25;2071549;69;20160;-81
2023/11/12 08:16:13;;;;;;;5.75;2.90;;;;;;;3.43;71.51;91903.63;2070999;69;20187;-80
2023/11/12 08:18:43;;;;;;;6.32;3.67;;;;;;;3.95;70.47;91910.84;2068041;69;20148;-80
2023/11/12 08:21:09;;;;;;;10.65;5.57;;;;;;;3.64;70.76;91910.69;2071525;69;20231;-79
2023/11/12 08:23:35;;;;;;;8.98;5.20;;;;;;;3.55;71.42;91907.31;2071638;69;20152;-79
2023/11/12 08:26:01;;;;;;;7.18;4.38;;;;;;;3.51;71.62;91920.19;2068064;69;20486;-79
2023/11/12 08:28:28;;;;;;;8.57;4.68;;;;;;;3.53;71.45;91918.31;2071350;69;20137;-79
2023/11/12 08:30:53;;;;;;;9.35;5.75;;;;;;;3.90;71.49;91914.66;2071552;69;20160;-79
2023/11/12 08:33:19;;;;;;;11.38;5.60;;;;;;;3.73;71.54;91916.25;2062430;69;20156;-78
2023/11/12 08:35:45;;;;;;;9.85;5.90;;;;;;;3.57;72.33;91926.19;2068501;69;20152;-79
2023/11/12 08:38:10;;;;;;;8.25;5.20;;;;;;;3.85;71.61;91922.00;2071906;69;20148;-78
2023/11/12 08:40:41;;;;;;;8.48;5.13;;;;;;;4.08;71.06;91916.69;2068486;69;20618;-77
2023/11/12 08:43:08;;;;;;;7.20;4.45;;;;;;;4.26;70.20;91922.09;2068542;69;20277;-78
2023/11/12 08:45:34;;;;;;;6.20;4.22;;;;;;;4.17;70.36;91923.59;2071878;69;20128;-79
2023/11/12 08:48:00;;;;;;;6.35;4.35;;;;;;;4.65;69.73;91924.78;2068478;69;20145;-78
2023/11/12 08:50:26;;;;;;;7.65;4.75;;;;;;;4.48;69.71;91931.28;2071977;69;20243;-78
2023/11/12 08:52:52;;;;;;;9.55;4.90;;;;;;;3.90;70.48;91900.75;2071870;69;20160;-79
2023/11/12 08:55:18;;;;;;;7.70;4.35;;;;;;;4.49;69.82;91927.16;2071750;69;20156;-78
2023/11/12 08:57:44;;;;;;;13.60;7.03;;;;;;;4.58;69.47;91927.16;2068548;69;20243;-77
2023/11/12 09:00:11;;;;;;;9.10;6.00;;;;;;;4.26;70.74;91936.00;2071972;69;20203;-78
2023/11/12 09:02:37;;;;;;;33.42;15.43;;;;;;;4.25;70.84;91938.06;2068514;69;20217;-78
2023/11/12 09:05:04;;;;;;;12.10;7.20;;;;;;;4.69;68.93;91936.97;2072000;69;20172;-77
2023/11/12 09:07:30;;;;;;;24.77;12.70;;;;;;;4.85;68.20;91937.34;2071953;69;20167;-78
2023/11/12 09:09:56;;;;;;;17.38;7.88;;;;;;;4.83;68.31;91929.56;2065474;69;20211;-78
2023/11/12 09:12:22;;;;;;;6.50;4.22;;;;;;;4.34;67.25;91937.31;2072061;69;20148;-78
2023/11/12 09:14:49;;;;;;;10.10;5.65;;;;;;;4.32;67.52;91950.38;2071955;69;20147;-78
2023/11/12 09:17:16;;;;;;;10.05;5.95;;;;;;;4.44;68.05;91956.81;2072011;69;20136;-78
2023/11/12 09:19:43;;;;;;;9.93;5.20;;;;;;;4.58;67.95;91954.28;2072017;69;20175;-78
2023/11/12 09:22:09;;;;;;;11.27;4.97;;;;;;;5.31;66.79;91966.97;2068509;69;20140;-78
2023/11/12 09:24:35;;;;;;;9.40;3.97;;;;;;;5.50;65.88;91963.38;2071882;69;20160;-78
2023/11/12 09:27:01;;;;;;;9.60;4.68;;;;;;;5.64;65.75;91966.38;2071829;69;20147;-78
2023/11/12 09:29:28;;;;;;;7.45;4.47;;;;;;;5.73;65.33;91968.38;2071747;69;20159;-78
2023/11/12 09:31:54;;;;;;;8.93;5.45;;;;;;;5.86;64.93;91976.97;2071780;69;20168;-78
2023/11/12 09:34:20;;;;;;;7.72;4.75;;;;;;;5.47;65.39;91964.56;2071840;69;20592;-79
2023/11/12 09:36:45;;;;;;;6.97;4.55;;;;;;;5.25;66.29;91972.88;2072110;69;20213;-78
2023/11/12 09:39:13;;;;;;;9.27;5.80;;;;;;;5.06;65.90;91970.91;2071879;69;20204;-79
2023/11/12 09:41:45;;;;;;;7.15;4.18;;;;;;;5.30;65.38;91966.22;2068531;69;20494;-79
2023/11/12 09:44:11;;;;;;;7.03;4.00;;;;;;;5.60;64.49;91964.78;2071935;69;20180;-79
2023/11/12 09:46:38;;;;;;;6.47;3.95;;;;;;;5.87;64.30;91958.13;2071919;69;20276;-78
2023/11/12 09:49:05;;;;;;;6.90;3.90;;;;;;;5.82;63.64;91937.59;2071808;69;20145;-77
2023/11/12 09:51:35;;;;;;;5.68;3.40;;;;;;;5.97;63.61;91963.69;2068489;69;20173;-77
2023/11/12 09:54:03;;;;;;;7.53;3.75;;;;;;;6.03;63.38;91969.66;2068471;69;20152;-77
2023/11/12 09:56:29;;;;;;;5.72;3.00;;;;;;;6.09;62.25;91967.25;2071807;69;20205;-78
2023/11/12 09:58:55;;;;;;;8.90;2.97;;;;;;;6.10;62.23;91958.28;2071949;69;20227;-78
2023/11/12 10:01:20;;;;;;;10.65;5.50;;;;;;;6.15;62.77;91975.31;2071932;69;20145;-79
2023/11/12 10:03:48;;;;;;;7.55;4.15;;;;;;;6.13;62.99;91980.75;2071810;69;20148;-78
2023/11/12 10:06:14;;;;;;;6.20;3.53;;;;;;;5.70;63.10;91973.09;2071766;69;20164;-78
2023/11/12 10:08:39;;;;;;;5.75;3.90;;;;;;;5.51;64.03;91992.75;2071747;69;20140;-77
2023/11/12 10:11:22;;;;;;;7.95;5.10;;;;;;;5.61;64.09;91985.03;2071592;69;20152;-81
2023/11/12 10:13:56;;;;;;;7.18;4.60;;;;;;;6.06;62.75;91977.59;2071671;69;20149;-79
2023/11/12 10:16:29;;;;;;;6.78;4.30;;;;;;;6.05;62.57;91987.31;2068670;69;20140;-79
2023/11/12 10:19:21;;;;;;;5.75;3.60;;;;;;;5.84;62.23;91984.47;2071865;69;20603;-79
2023/11/12 10:21:54;;;;;;;7.75;4.65;;;;;;;6.15;61.91;91983.72;2070860;69;20148;-77
2023/11/12 10:24:19;;;;;;;15.00;7.72;;;;;;;6.24;62.05;91980.09;2071753;69;20183;-80
2023/11/12 10:26:46;;;;;;;22.27;11.30;;;;;;;6.43;61.53;91979.94;2071609;69;20148;-80
2023/11/12 10:29:22;;;;;;;8.38;4.47;;;;;;;5.83;62.36;91971.84;2071958;69;20555;-79
2023/11/12 10:31:50;;;;;;;6.20;3.85;;;;;;;5.80;62.58;91976.53;2071675;69;20183;-79
2023/11/12 10:34:17;;;;;;;7.53;4.60;;;;;;;5.67;62.57;91970.75;2071574;69;20631;-78
2023/11/12 10:37:01;;;;;;;7.93;4.57;;;;;;;5.97;63.03;91967.19;2071685;69;20160;-79
2023/11/12 10:39:41;;;;;;;5.97;4.25;;;;;;;6.15;62.67;91966.94;2071671;69;20147;-80
2023/11/12 10:42:19;;;;;;;7.47;4.60;;;;;;;6.29;62.15;91968.56;2071774;69;20136;-81
2023/11/12 10:44:46;;;;;;;7.32;4.07;;;;;;;6.51;61.84;91963.69;2068296;69;20160;-79
2023/11/12 10:47:16;;;;;;;8.90;5.07;;;;;;;6.51;61.18;91971.34;2071576;69;20240;-79
2023/11/12 10:49:42;;;;;;;8.18;5.00;;;;;;;6.69;61.16;91968.94;2068346;69;20171;-82
2023/11/12 10:52:10;;;;;;;6.57;3.45;;;;;;;6.62;60.17;91960.19;2068451;69;20596;-79
2023/11/12 10:54:36;;;;;;;14.65;8.15;;;;;;;6.35;60.71;91963.38;2071536;69;20219;-80
2023/11/12 10:57:04;;;;;;;10.95;5.88;;;;;;;6.39;60.75;91943.34;2071594;69;20160;-81
2023/11/12 10:59:33;;;;;;;11.27;6.35;;;;;;;6.67;61.41;91958.38;2071553;69;20140;-79
2023/11/12 11:02:00;;;;;;;8.52;4.90;;;;;;;6.62;60.84;91951.78;2068306;69;20168;-81
2023/11/12 11:04:28;;;;;;;12.40;7.97;;;;;;;6.46;60.15;91955.63;2071791;69;20194;-83
2023/11/12 11:06:54;;;;;;;6.18;4.18;;;;;;;6.40;60.46;91963.63;2072006;69;20141;-82
2023/11/12 11:09:22;;;;;;;6.07;2.90;;;;;;;6.33;60.13;91966.03;2071781;69;20141;-81
2023/11/12 11:11:51;;;;;;;8.10;4.05;;;;;;;6.33;60.39;91960.47;2068209;69;20146;-83
2023/11/12 11:14:21;;;;;;;8.40;4.03;;;;;;;6.16;60.31;91960.00;2071884;69;20140;-84
2023/11/12 11:16:48;;;;;;;5.45;3.40;;;;;;;6.36;60.30;91959.22;2072639;69;20155;-85
2023/11/12 11:19:14;;;;;;;8.35;3.15;;;;;;;6.56;60.03;91959.81;2072103;69;20164;-84
2023/11/12 11:22:21;;;;;;;8.57;3.83;;;;;;;6.85;60.11;91969.97;2071894;69;20156;-83
2023/11/12 11:24:47;;;;;;;6.75;3.50;;;;;;;6.92;60.13;91960.63;2071542;69;20344;-83
2023/11/12 11:27:13;;;;;;;5.25;3.58;;;;;;;7.03;60.02;91961.97;2071596;69;20168;-83
2023/11/12 11:30:10;;;;;;;4.57;2.83;;;;;;;7.00;60.32;91960.38;2071662;69;20156;-83
2023/11/12 11:32:37;;;;;;;3.25;2.08;;;;;;;6.33;62.15;91960.47;2071768;69;20129;-79
2023/11/12 11:35:21;;;;;;;3.60;1.80;;;;;;;5.49;66.61;91954.22;2068109;69;20166;-79
2023/11/12 11:38:09;;;;;;;4.45;2.13;;;;;;;5.71;66.65;91962.66;2071668;69;20144;-81
2023/11/12 11:40:36;;;;;;;2.47;1.67;;;;;;;5.66;66.39;91956.06;2068139;69;20161;-84
2023/11/12 11:43:23;;;;;;;2.42;1.33;;;;;;;5.98;66.27;91959.56;2071482;69;20611;-82
2023/11/12 11:46:09;;;;;;;5.38;2.13;;;;;;;6.16;65.51;91957.22;2071558;69;20197;-84